createdAt,value
2022-07-29T00:01:05.227Z,4.80
2022-07-29T00:03:32.307Z,4.73
2022-07-29T00:05:59.471Z,4.60
2022-07-29T00:08:28.016Z,4.93
2022-07-29T00:10:55.094Z,4.60
2022-07-29T00:13:31.764Z,5.07
2022-07-29T00:16:04.828Z,5.20
2022-07-29T00:18:33.002Z,5.40
2022-07-29T00:21:00.339Z,5.53
2022-07-29T00:23:27.469Z,5.30
2022-07-29T00:25:54.769Z,5.00
2022-07-29T00:28:21.878Z,5.50
2022-07-29T00:30:48.993Z,5.53
2022-07-29T00:33:16.053Z,5.40
2022-07-29T00:35:45.730Z,5.47
2022-07-29T00:38:19.358Z,6.20
2022-07-29T00:40:47.002Z,5.90
2022-07-29T00:43:15.653Z,5.50
2022-07-29T00:45:43.294Z,5.50
2022-07-29T00:48:10.760Z,5.17
2022-07-29T00:50:38.390Z,5.20
2022-07-29T00:53:07.507Z,5.30
2022-07-29T00:55:35.162Z,5.07
2022-07-29T00:58:02.237Z,4.60
2022-07-29T01:00:30.537Z,5.27
2022-07-29T01:02:57.924Z,5.57
2022-07-29T01:05:51.214Z,4.70
2022-07-29T01:08:16.796Z,4.63
2022-07-29T01:10:45.142Z,5.30
2022-07-29T01:13:13.000Z,4.57
2022-07-29T01:15:49.550Z,4.00
2022-07-29T01:18:31.468Z,4.80
2022-07-29T01:21:45.930Z,4.37
2022-07-29T01:24:53.387Z,4.27
2022-07-29T01:27:52.052Z,4.30
2022-07-29T01:30:19.826Z,4.50
2022-07-29T01:32:55.120Z,4.20
2022-07-29T01:35:26.927Z,4.00
2022-07-29T01:38:02.285Z,4.70
2022-07-29T01:40:47.742Z,4.37
2022-07-29T01:43:19.839Z,4.53
2022-07-29T01:45:58.913Z,3.90
2022-07-29T01:48:42.978Z,4.17
2022-07-29T01:51:20.314Z,4.47
2022-07-29T01:54:19.553Z,4.20
2022-07-29T01:56:50.820Z,3.97
2022-07-29T01:59:19.090Z,4.27
2022-07-29T02:01:48.212Z,4.10
2022-07-29T02:04:29.274Z,3.80
2022-07-29T02:07:02.670Z,3.90
2022-07-29T02:09:30.500Z,4.30
2022-07-29T02:12:00.324Z,4.33
2022-07-29T02:14:29.832Z,4.03
2022-07-29T02:16:59.244Z,3.77
2022-07-29T02:19:28.084Z,4.47
2022-07-29T02:21:57.580Z,4.13
2022-07-29T02:24:26.318Z,4.00
2022-07-29T02:26:56.034Z,3.90
2022-07-29T02:29:24.977Z,4.10
2022-07-29T02:31:53.645Z,3.97
2022-07-29T02:34:22.175Z,4.40
2022-07-29T02:36:51.219Z,4.03
2022-07-29T02:39:19.848Z,3.93
2022-07-29T02:41:51.170Z,4.03
2022-07-29T02:44:20.631Z,4.20
2022-07-29T02:47:16.497Z,4.60
2022-07-29T02:49:58.157Z,5.00
2022-07-29T02:52:40.932Z,5.37
2022-07-29T02:55:34.641Z,7.17
2022-07-29T02:58:33.400Z,6.20
2022-07-29T03:01:09.979Z,6.43
2022-07-29T03:03:39.069Z,5.53
2022-07-29T03:06:06.971Z,5.97
2022-07-29T03:08:35.422Z,6.50
2022-07-29T03:11:03.645Z,6.13
2022-07-29T03:13:31.635Z,6.03
2022-07-29T03:16:00.051Z,5.10
2022-07-29T03:18:27.911Z,5.30
2022-07-29T03:20:55.248Z,5.00
2022-07-29T03:23:25.005Z,4.40
2022-07-29T03:25:52.176Z,5.47
2022-07-29T03:28:20.485Z,5.10
2022-07-29T03:30:49.871Z,5.60
2022-07-29T03:33:17.292Z,6.03
2022-07-29T03:35:44.392Z,5.60
2022-07-29T03:38:11.505Z,6.10
2022-07-29T03:41:02.672Z,5.70
2022-07-29T03:43:34.261Z,5.40
2022-07-29T03:46:03.034Z,6.07
2022-07-29T03:48:33.879Z,6.40
2022-07-29T03:51:01.216Z,6.07
2022-07-29T03:53:28.446Z,6.47
2022-07-29T03:56:00.665Z,6.03
2022-07-29T03:58:28.842Z,6.20
2022-07-29T04:00:56.169Z,6.47
2022-07-29T04:03:23.974Z,7.17
2022-07-29T04:06:07.205Z,7.20
2022-07-29T04:08:34.941Z,7.17
2022-07-29T04:11:02.876Z,7.23
2022-07-29T04:13:29.973Z,7.23
2022-07-29T04:15:57.279Z,7.57
2022-07-29T04:18:24.754Z,7.33
2022-07-29T04:20:51.853Z,7.10
2022-07-29T04:23:18.843Z,7.63
2022-07-29T04:25:45.865Z,7.57
2022-07-29T04:28:12.979Z,6.67
2022-07-29T04:30:40.061Z,6.17
2022-07-29T04:33:08.099Z,6.53
2022-07-29T04:35:38.650Z,6.87
2022-07-29T04:38:07.206Z,7.27
2022-07-29T04:40:34.873Z,6.93
2022-07-29T04:43:06.102Z,7.40
2022-07-29T04:45:33.188Z,7.30
2022-07-29T04:48:00.194Z,7.93
2022-07-29T04:50:27.302Z,8.70
2022-07-29T04:52:54.338Z,8.40
2022-07-29T04:55:21.489Z,6.87
2022-07-29T04:57:48.571Z,8.33
2022-07-29T05:00:15.722Z,8.87
2022-07-29T05:02:42.797Z,8.27
2022-07-29T05:05:10.020Z,7.50
2022-07-29T05:07:37.125Z,7.20
2022-07-29T05:10:04.782Z,6.90
2022-07-29T05:12:31.858Z,8.07
2022-07-29T05:14:58.903Z,7.37
2022-07-29T05:17:26.090Z,7.80
2022-07-29T05:19:53.381Z,8.60
2022-07-29T05:22:21.163Z,7.30
2022-07-29T05:24:48.293Z,7.67
2022-07-29T05:27:15.362Z,9.43
2022-07-29T05:29:45.255Z,10.20
2022-07-29T05:32:13.808Z,8.40
2022-07-29T05:34:50.321Z,10.77
2022-07-29T05:37:21.633Z,9.27
2022-07-29T05:39:50.567Z,9.40
2022-07-29T05:42:23.714Z,9.20
2022-07-29T05:44:50.799Z,9.57
2022-07-29T05:47:17.886Z,8.13
2022-07-29T05:49:44.884Z,9.33
2022-07-29T05:52:12.068Z,8.83
2022-07-29T05:54:39.198Z,9.03
2022-07-29T05:57:06.445Z,8.30
2022-07-29T05:59:37.542Z,9.17
2022-07-29T06:02:06.244Z,8.83
2022-07-29T06:04:34.673Z,8.80
2022-07-29T06:07:02.896Z,9.47
2022-07-29T06:09:30.326Z,7.93
2022-07-29T06:11:58.328Z,8.47
2022-07-29T06:14:26.129Z,7.50
2022-07-29T06:16:54.076Z,7.20
2022-07-29T06:19:21.319Z,6.80
2022-07-29T06:21:49.068Z,6.93
2022-07-29T06:24:17.409Z,6.90
2022-07-29T06:26:44.675Z,6.50
2022-07-29T06:29:12.191Z,6.00
2022-07-29T06:31:40.018Z,5.40
2022-07-29T06:34:07.237Z,5.50
2022-07-29T06:36:37.986Z,5.40
2022-07-29T06:39:08.011Z,5.20
2022-07-29T06:41:35.471Z,5.00
2022-07-29T06:44:10.248Z,5.80
2022-07-29T06:46:37.531Z,5.70
2022-07-29T06:49:05.029Z,5.87
2022-07-29T06:51:32.249Z,6.07
2022-07-29T06:54:03.217Z,5.57
2022-07-29T06:56:39.254Z,5.97
2022-07-29T06:59:12.224Z,5.13
2022-07-29T07:01:41.515Z,6.30
2022-07-29T07:04:09.837Z,5.47
2022-07-29T07:06:46.167Z,5.10
2022-07-29T07:09:13.745Z,5.67
2022-07-29T07:11:40.938Z,4.77
2022-07-29T07:14:07.973Z,5.50
2022-07-29T07:16:34.967Z,5.40
2022-07-29T07:19:02.114Z,5.27
2022-07-29T07:21:30.638Z,5.63
2022-07-29T07:23:58.524Z,5.30
2022-07-29T07:26:26.143Z,5.40
2022-07-29T07:28:56.214Z,5.73
2022-07-29T07:31:23.537Z,5.67
2022-07-29T07:33:50.606Z,6.13
2022-07-29T07:36:17.637Z,6.30
2022-07-29T07:38:44.686Z,5.97
2022-07-29T07:41:11.750Z,6.03
2022-07-29T07:43:39.033Z,6.70
2022-07-29T07:46:06.174Z,7.13
2022-07-29T07:48:33.275Z,6.03
2022-07-29T07:51:00.425Z,6.30
2022-07-29T07:53:27.924Z,6.97
2022-07-29T07:56:12.210Z,7.00
2022-07-29T07:58:39.816Z,6.50
2022-07-29T08:01:07.090Z,5.87
2022-07-29T08:03:34.475Z,6.63
2022-07-29T08:06:01.801Z,6.87
2022-07-29T08:08:28.850Z,5.83
2022-07-29T08:10:58.572Z,6.53
2022-07-29T08:13:29.323Z,6.80
2022-07-29T08:16:01.171Z,6.87
2022-07-29T08:18:32.412Z,7.20
2022-07-29T08:21:00.145Z,7.10
2022-07-29T08:23:32.806Z,7.00
2022-07-29T08:26:14.115Z,7.87
2022-07-29T08:28:45.790Z,7.67
2022-07-29T08:31:13.835Z,7.37
2022-07-29T08:33:40.942Z,7.67
2022-07-29T08:36:08.147Z,8.80
2022-07-29T08:38:35.158Z,7.90
2022-07-29T08:41:02.993Z,7.50
2022-07-29T08:43:30.368Z,7.77
2022-07-29T08:45:57.466Z,7.70
2022-07-29T08:48:25.889Z,7.80
2022-07-29T08:50:57.732Z,7.00
2022-07-29T08:53:27.919Z,6.80
2022-07-29T08:55:56.181Z,7.00
2022-07-29T08:58:25.232Z,6.53
2022-07-29T09:00:55.910Z,6.47
2022-07-29T09:03:31.670Z,6.27
2022-07-29T09:06:03.052Z,6.53
2022-07-29T09:08:31.574Z,6.67
2022-07-29T09:11:00.985Z,5.90
2022-07-29T09:13:31.346Z,5.93
2022-07-29T09:15:58.444Z,6.10
2022-07-29T09:18:55.028Z,5.77
2022-07-29T09:21:40.508Z,6.43
2022-07-29T09:24:10.176Z,5.73
2022-07-29T09:26:45.005Z,5.57
2022-07-29T09:29:20.365Z,5.40
2022-07-29T09:31:52.370Z,6.60
2022-07-29T09:34:29.504Z,6.43
2022-07-29T09:36:57.310Z,5.70
2022-07-29T09:39:50.122Z,5.93
2022-07-29T09:42:29.447Z,5.87
2022-07-29T09:44:56.612Z,5.97
2022-07-29T09:47:26.943Z,5.73
2022-07-29T09:49:59.405Z,6.13
2022-07-29T09:52:31.114Z,5.43
2022-07-29T09:55:08.515Z,6.57
2022-07-29T09:57:35.814Z,5.43
2022-07-29T10:00:09.952Z,5.83
2022-07-29T10:02:41.496Z,5.97
2022-07-29T10:05:19.464Z,5.23
2022-07-29T10:07:53.940Z,4.80
2022-07-29T10:10:36.811Z,4.63
2022-07-29T10:13:16.045Z,5.23
2022-07-29T10:15:46.937Z,5.37
2022-07-29T10:18:16.168Z,4.43
2022-07-29T10:20:43.268Z,4.67
2022-07-29T10:23:10.903Z,4.10
2022-07-29T10:25:38.111Z,4.73
2022-07-29T10:28:07.518Z,4.90
2022-07-29T10:30:35.417Z,4.80
2022-07-29T10:33:48.770Z,4.73
2022-07-29T10:36:57.931Z,4.30
2022-07-29T10:39:53.522Z,4.77
2022-07-29T10:42:29.580Z,4.30
2022-07-29T10:45:00.658Z,5.07
2022-07-29T10:47:28.528Z,4.40
2022-07-29T10:50:04.232Z,4.90
2022-07-29T10:52:58.095Z,4.77
2022-07-29T10:55:43.814Z,3.67
2022-07-29T10:58:23.485Z,4.07
2022-07-29T11:00:54.911Z,3.30
2022-07-29T11:03:50.679Z,3.67
2022-07-29T11:06:26.718Z,4.03
2022-07-29T11:09:18.223Z,3.87
2022-07-29T11:12:00.391Z,4.03
2022-07-29T11:14:56.808Z,3.70
2022-07-29T11:17:25.119Z,3.50
2022-07-29T11:19:52.741Z,3.67
2022-07-29T11:22:36.590Z,3.30
2022-07-29T11:25:17.558Z,3.70
2022-07-29T11:27:46.081Z,3.40
2022-07-29T11:30:14.504Z,3.37
2022-07-29T11:32:48.704Z,3.80
2022-07-29T11:35:37.636Z,2.83
2022-07-29T11:38:32.113Z,3.20
2022-07-29T11:41:25.489Z,2.97
2022-07-29T11:44:01.966Z,3.43
2022-07-29T11:46:50.241Z,2.80
2022-07-29T11:52:15.787Z,3.13
2022-07-29T11:54:58.012Z,2.87
2022-07-29T12:00:34.763Z,2.40
2022-07-29T12:03:05.205Z,2.30
2022-07-29T12:05:38.737Z,2.60
2022-07-29T12:08:20.298Z,2.70
2022-07-29T12:10:50.517Z,2.40
2022-07-29T12:13:20.031Z,2.47
2022-07-29T12:15:55.675Z,2.50
2022-07-29T12:18:27.893Z,2.60
2022-07-29T12:21:05.310Z,2.70
2022-07-29T12:23:35.685Z,2.80
2022-07-29T12:26:07.664Z,2.37
2022-07-29T12:28:39.914Z,2.27
2022-07-29T12:31:13.929Z,2.17
2022-07-29T12:33:41.256Z,2.30
2022-07-29T12:36:17.099Z,2.07
2022-07-29T12:38:46.108Z,1.90
2022-07-29T12:41:14.088Z,2.17
2022-07-29T12:43:53.934Z,2.27
2022-07-29T12:46:21.211Z,2.10
2022-07-29T12:49:01.631Z,1.90
2022-07-29T12:51:41.582Z,2.57
2022-07-29T12:54:14.379Z,2.30
2022-07-29T12:56:44.138Z,2.37
2022-07-29T12:59:16.312Z,2.10
2022-07-29T13:01:44.047Z,2.57
2022-07-29T13:04:12.148Z,2.43
2022-07-29T13:06:51.132Z,2.37
2022-07-29T13:09:25.582Z,2.27
2022-07-29T13:11:54.538Z,2.33
2022-07-29T13:14:57.264Z,2.50
2022-07-29T13:17:25.113Z,2.33
2022-07-29T13:19:53.859Z,2.60
2022-07-29T13:22:24.872Z,2.30
2022-07-29T13:24:59.144Z,2.40
2022-07-29T13:27:27.836Z,2.27
2022-07-29T13:29:57.580Z,2.50
2022-07-29T13:32:28.225Z,2.23
2022-07-29T13:34:59.366Z,2.10
2022-07-29T13:37:27.513Z,2.30
2022-07-29T13:39:55.303Z,2.03
2022-07-29T13:42:22.801Z,1.90
2022-07-29T13:44:51.887Z,2.03
2022-07-29T13:47:19.747Z,2.00
2022-07-29T13:49:47.415Z,2.33
2022-07-29T13:52:14.894Z,2.73
2022-07-29T13:54:42.803Z,2.50
2022-07-29T13:57:11.993Z,2.07
2022-07-29T13:59:40.270Z,2.30
2022-07-29T14:02:07.797Z,2.37
2022-07-29T14:04:35.218Z,2.30
2022-07-29T14:07:03.736Z,2.17
2022-07-29T14:09:41.407Z,2.13
2022-07-29T14:12:09.730Z,2.33
2022-07-29T14:14:37.729Z,2.10
2022-07-29T14:17:07.705Z,2.47
2022-07-29T14:19:36.836Z,2.20
2022-07-29T14:22:05.177Z,2.00
2022-07-29T14:24:32.558Z,2.00
2022-07-29T14:27:04.543Z,2.17
2022-07-29T14:29:36.980Z,1.90
2022-07-29T14:32:09.080Z,2.30
2022-07-29T14:34:37.060Z,1.83
2022-07-29T14:37:06.599Z,2.00
2022-07-29T14:39:42.504Z,2.20
2022-07-29T14:42:11.607Z,2.30
2022-07-29T14:44:41.366Z,1.90
2022-07-29T14:47:09.141Z,2.30
2022-07-29T14:49:42.838Z,2.10
2022-07-29T14:52:10.225Z,2.10
2022-07-29T14:54:37.638Z,2.07
2022-07-29T14:57:05.111Z,1.90
2022-07-29T14:59:32.532Z,2.47
2022-07-29T15:02:00.454Z,2.83
2022-07-29T15:04:28.244Z,1.70
2022-07-29T15:06:55.661Z,2.30
2022-07-29T15:09:23.967Z,2.53
2022-07-29T15:11:51.597Z,2.00
2022-07-29T15:14:19.023Z,2.20
2022-07-29T15:16:46.726Z,1.83
2022-07-29T15:19:15.437Z,2.10
2022-07-29T15:21:48.131Z,2.57
2022-07-29T15:24:16.832Z,2.10
2022-07-29T15:26:44.933Z,2.40
2022-07-29T15:29:12.315Z,2.00
2022-07-29T15:31:39.951Z,2.40
2022-07-29T15:34:08.907Z,2.33
2022-07-29T15:36:51.344Z,3.47
2022-07-29T15:39:20.660Z,3.70
2022-07-29T15:41:48.057Z,4.43
2022-07-29T15:44:15.519Z,3.90
2022-07-29T15:47:02.042Z,3.73
2022-07-29T15:49:47.496Z,3.90
2022-07-29T15:52:18.491Z,3.77
2022-07-29T15:54:46.049Z,3.90
2022-07-29T15:57:13.544Z,4.73
2022-07-29T15:59:40.704Z,4.10
2022-07-29T16:02:08.241Z,4.33
2022-07-29T16:04:35.338Z,4.70
2022-07-29T16:07:02.363Z,4.80
2022-07-29T16:09:29.392Z,4.93
2022-07-29T16:11:56.828Z,5.40
2022-07-29T16:14:24.095Z,5.10
2022-07-29T16:16:56.220Z,5.57
2022-07-29T16:19:23.678Z,5.07
2022-07-29T16:21:50.829Z,4.77
2022-07-29T16:24:18.318Z,4.83
2022-07-29T16:26:45.328Z,5.13
2022-07-29T16:29:12.506Z,4.30
2022-07-29T16:31:39.593Z,4.70
2022-07-29T16:34:06.620Z,5.43
2022-07-29T16:36:33.693Z,5.40
2022-07-29T16:39:00.726Z,4.63
2022-07-29T16:41:29.658Z,5.10
2022-07-29T16:43:56.844Z,4.73
2022-07-29T16:46:24.324Z,4.70
2022-07-29T16:48:53.186Z,5.00
2022-07-29T16:51:20.337Z,4.40
2022-07-29T16:53:49.757Z,3.77
2022-07-29T16:56:17.998Z,4.00
2022-07-29T16:58:45.403Z,4.00
2022-07-29T17:01:12.869Z,4.10
2022-07-29T17:04:00.594Z,3.70
2022-07-29T17:06:29.401Z,4.33
2022-07-29T17:08:57.271Z,3.70
2022-07-29T17:11:53.201Z,3.70
2022-07-29T17:14:12.663Z,4.47
2022-07-29T17:16:40.157Z,4.50
2022-07-29T17:19:07.150Z,4.03
2022-07-29T17:21:34.203Z,4.00
2022-07-29T17:24:01.277Z,4.00
2022-07-29T17:26:28.411Z,3.93
2022-07-29T17:28:55.982Z,4.30
2022-07-29T17:31:23.450Z,3.93
2022-07-29T17:33:50.897Z,3.70
2022-07-29T17:36:24.329Z,4.60
2022-07-29T17:39:01.985Z,4.27
2022-07-29T17:41:29.052Z,3.80
2022-07-29T17:43:56.374Z,3.20
2022-07-29T17:46:26.578Z,3.60
2022-07-29T17:48:55.747Z,3.67
2022-07-29T17:51:25.101Z,3.40
2022-07-29T17:53:53.130Z,2.60
2022-07-29T17:56:20.259Z,2.77
2022-07-29T17:58:47.617Z,2.80
2022-07-29T18:01:15.514Z,2.87
2022-07-29T18:03:43.308Z,2.90
2022-07-29T18:06:10.759Z,2.90
2022-07-29T18:08:39.209Z,2.80
2022-07-29T18:11:06.860Z,3.30
2022-07-29T18:13:33.863Z,2.80
2022-07-29T18:16:01.044Z,3.10
2022-07-29T18:18:28.224Z,3.20
2022-07-29T18:20:55.542Z,2.90
2022-07-29T18:23:22.566Z,2.73
2022-07-29T18:25:49.611Z,3.23
2022-07-29T18:28:16.735Z,2.70
2022-07-29T18:30:46.169Z,3.17
2022-07-29T18:33:24.295Z,2.73
2022-07-29T18:36:10.856Z,3.23
2022-07-29T18:38:40.346Z,3.30
2022-07-29T18:41:07.525Z,2.90
2022-07-29T18:43:34.591Z,2.93
2022-07-29T18:46:01.574Z,2.87
2022-07-29T18:48:29.645Z,2.80
2022-07-29T18:50:56.697Z,2.70
2022-07-29T18:53:23.733Z,2.80
2022-07-29T18:55:50.822Z,2.73
2022-07-29T18:58:17.863Z,2.87
2022-07-29T19:00:44.855Z,2.53
2022-07-29T19:03:12.042Z,2.30
2022-07-29T19:05:39.175Z,2.30
2022-07-29T19:08:06.645Z,2.43
2022-07-29T19:10:33.736Z,2.20
2022-07-29T19:13:00.817Z,2.47
2022-07-29T19:15:27.928Z,2.40
2022-07-29T19:18:00.586Z,2.43
2022-07-29T19:20:28.477Z,2.43
2022-07-29T19:22:55.457Z,2.17
2022-07-29T19:25:23.329Z,2.10
2022-07-29T19:27:50.317Z,2.10
2022-07-29T19:30:17.370Z,2.20
2022-07-29T19:32:44.443Z,2.27
2022-07-29T19:35:30.249Z,2.60
2022-07-29T19:37:59.434Z,2.30
2022-07-29T19:40:27.729Z,2.37
2022-07-29T19:42:55.761Z,2.40
2022-07-29T19:45:24.927Z,2.27
2022-07-29T19:47:54.029Z,2.30
2022-07-29T19:50:25.159Z,2.20
2022-07-29T19:52:52.885Z,2.40
2022-07-29T19:55:20.095Z,2.50
2022-07-29T19:57:47.094Z,2.50
2022-07-29T20:00:16.158Z,2.67
2022-07-29T20:02:43.359Z,2.30
2022-07-29T20:05:11.517Z,2.60
2022-07-29T20:07:39.254Z,2.20
2022-07-29T20:10:08.190Z,2.60
2022-07-29T20:12:37.457Z,2.30
2022-07-29T20:15:07.171Z,2.40
2022-07-29T20:17:38.424Z,2.37
2022-07-29T20:20:08.624Z,2.70
2022-07-29T20:22:36.738Z,2.87
2022-07-29T20:25:04.928Z,2.70
2022-07-29T20:27:31.990Z,2.40
2022-07-29T20:29:59.030Z,2.77
2022-07-29T20:32:26.076Z,2.70
2022-07-29T20:34:53.110Z,2.80
2022-07-29T20:37:20.676Z,2.97
2022-07-29T20:39:47.979Z,3.13
2022-07-29T20:42:15.968Z,3.50
2022-07-29T20:44:43.326Z,3.40
2022-07-29T20:47:10.417Z,3.47
2022-07-29T20:49:37.523Z,3.50
2022-07-29T20:52:04.785Z,3.00
2022-07-29T20:54:31.827Z,3.00
2022-07-29T20:56:59.105Z,3.17
2022-07-29T20:59:26.299Z,3.00
2022-07-29T21:01:55.570Z,2.93
2022-07-29T21:04:22.677Z,2.60
2022-07-29T21:06:58.590Z,3.67
2022-07-29T21:09:25.969Z,4.00
2022-07-29T21:11:53.239Z,3.60
2022-07-29T21:14:49.825Z,3.30
2022-07-29T21:17:19.349Z,3.17
2022-07-29T21:19:52.653Z,3.50
2022-07-29T21:22:21.956Z,3.50
2022-07-29T21:24:49.665Z,3.63
2022-07-29T21:27:35.225Z,3.10
2022-07-29T21:30:07.169Z,3.20
2022-07-29T21:32:34.265Z,3.43
2022-07-29T21:35:01.419Z,3.50
2022-07-29T21:37:28.455Z,3.43
2022-07-29T21:39:55.468Z,3.60
2022-07-29T21:42:22.613Z,4.30
2022-07-29T21:44:49.612Z,3.50
2022-07-29T21:47:16.629Z,3.77
2022-07-29T21:49:43.739Z,4.10
2022-07-29T21:52:12.064Z,3.53
2022-07-29T21:54:39.788Z,3.37
2022-07-29T21:57:07.167Z,3.27
2022-07-29T21:59:34.498Z,4.00
2022-07-29T22:02:01.636Z,3.70
2022-07-29T22:04:29.904Z,4.60
2022-07-29T22:06:58.176Z,4.03
2022-07-29T22:09:26.159Z,3.37
2022-07-29T22:11:53.744Z,3.57
2022-07-29T22:14:20.742Z,3.50
2022-07-29T22:16:48.141Z,3.10
2022-07-29T22:19:15.409Z,3.07
2022-07-29T22:21:42.857Z,2.93
2022-07-29T22:24:12.818Z,3.50
2022-07-29T22:26:39.877Z,3.10
2022-07-29T22:29:07.043Z,2.70
2022-07-29T22:31:34.251Z,2.83
2022-07-29T22:34:01.287Z,2.40
2022-07-29T22:36:28.312Z,3.23
2022-07-29T22:38:55.516Z,3.70
2022-07-29T22:41:22.548Z,3.83
2022-07-29T22:43:49.792Z,3.53
2022-07-29T22:46:16.973Z,3.23
2022-07-29T22:48:44.088Z,2.77
2022-07-29T22:51:11.338Z,2.70
2022-07-29T22:53:38.355Z,3.13
2022-07-29T22:56:05.900Z,2.27
2022-07-29T22:58:32.915Z,2.97
2022-07-29T23:00:59.934Z,2.70
2022-07-29T23:03:27.147Z,2.60
2022-07-29T23:05:54.158Z,2.70
2022-07-29T23:08:21.288Z,4.13
2022-07-29T23:10:48.273Z,3.57
2022-07-29T23:13:15.638Z,3.70
2022-07-29T23:15:42.875Z,4.10
2022-07-29T23:18:09.921Z,4.07
2022-07-29T23:20:37.150Z,3.60
2022-07-29T23:23:04.264Z,3.93
2022-07-29T23:25:31.732Z,3.07
2022-07-29T23:27:58.739Z,3.23
2022-07-29T23:30:26.229Z,3.87
2022-07-29T23:32:53.525Z,3.77
2022-07-29T23:35:20.621Z,3.60
2022-07-29T23:37:47.855Z,3.90
2022-07-29T23:40:15.475Z,3.20
2022-07-29T23:42:43.050Z,3.73
2022-07-29T23:45:11.405Z,4.07
2022-07-29T23:47:38.547Z,3.30
2022-07-29T23:50:06.960Z,3.73
2022-07-29T23:52:34.162Z,3.57
2022-07-29T23:55:37.734Z,3.73
2022-07-29T23:57:50.508Z,2.73
